Time;durP1;ratioP1;P1;durP2;ratioP2;P2;SDS_P1;SDS_P2;PMS_P1;PMS_P2;Temp;Humidity;BMP_temperature;BMP_pressure;BME280_temperature;BME280_humidity;BME280_pressure;Samples;Min_cycle;Max_cycle;Signal;HPM_P1;HPM_P2
2022/03/23 00:02:26;;;;;;;14.85;7.72;;;;;;;;;;6216876;28;20409;-72
2022/03/23 00:05:30;;;;;;;13.30;7.23;;;;;;;;;;6215814;28;20390;-71
2022/03/23 00:08:33;;;;;;;12.55;6.68;;;;;;;;;;6215334;28;20050;-71
2022/03/23 00:11:36;;;;;;;15.07;7.05;;;;;;;;;;6197858;28;20125;-71
2022/03/23 00:14:39;;;;;;;16.70;8.10;;;;;;;;;;6213020;28;20493;-73
2022/03/23 00:17:42;;;;;;;16.92;7.07;;;;;;;;;;6215353;28;20054;-71
2022/03/23 00:20:49;;;;;;;14.52;6.97;;;;;;;;;;6216519;28;20318;-71
2022/03/23 00:23:52;;;;;;;19.05;7.57;;;;;;;;;;6217913;28;20050;-71
2022/03/23 00:26:55;;;;;;;14.82;7.53;;;;;;;;;;6217496;28;20405;-71
2022/03/23 00:30:00;;;;;;;24.00;8.60;;;;;;;;;;6218202;28;20121;-71
2022/03/23 00:33:03;;;;;;;17.42;7.93;;;;;;;;;;6218422;28;20516;-72
2022/03/23 00:36:09;;;;;;;16.65;7.90;;;;;;;;;;6199649;28;20034;-72
2022/03/23 00:39:14;;;;;;;15.77;7.38;;;;;;;;;;6218041;28;20050;-72
2022/03/23 00:42:17;;;;;;;17.08;6.65;;;;;;;;;;6199967;28;20479;-72
2022/03/23 00:45:20;;;;;;;16.33;7.18;;;;;;;;;;6199869;28;20054;-72
2022/03/23 00:48:24;;;;;;;14.82;7.03;;;;;;;;;;6199814;28;20037;-71
2022/03/23 00:51:32;;;;;;;12.95;7.15;;;;;;;;;;6217439;28;20049;-72
2022/03/23 00:54:35;;;;;;;12.85;7.40;;;;;;;;;;6199994;28;20128;-72
2022/03/23 00:57:38;;;;;;;15.48;7.13;;;;;;;;;;6216738;28;20057;-71
2022/03/23 01:00:41;;;;;;;17.25;8.13;;;;;;;;;;6217719;28;20062;-71
2022/03/23 01:03:44;;;;;;;12.45;6.78;;;;;;;;;;6217363;28;20120;-71
2022/03/23 01:06:49;;;;;;;16.33;7.20;;;;;;;;;;6199349;28;20060;-72
2022/03/23 01:09:54;;;;;;;13.50;6.60;;;;;;;;;;6202028;28;20053;-71
2022/03/23 01:12:57;;;;;;;14.10;6.78;;;;;;;;;;6204151;28;20466;-74
2022/03/23 01:16:00;;;;;;;15.05;7.72;;;;;;;;;;6222290;28;20420;-73
2022/03/23 01:19:04;;;;;;;13.98;7.32;;;;;;;;;;6221304;28;20053;-73
2022/03/23 01:22:09;;;;;;;17.88;8.00;;;;;;;;;;6204415;28;20046;-71
2022/03/23 01:25:13;;;;;;;14.07;6.88;;;;;;;;;;6204281;28;20046;-73
2022/03/23 01:28:16;;;;;;;14.25;8.65;;;;;;;;;;6220517;28;20061;-72
2022/03/23 01:31:18;;;;;;;19.48;7.72;;;;;;;;;;6221467;28;20048;-73
2022/03/23 01:34:22;;;;;;;13.50;6.93;;;;;;;;;;6221212;28;20061;-73
2022/03/23 01:37:26;;;;;;;15.80;7.45;;;;;;;;;;6203772;28;20046;-73
2022/03/23 01:40:29;;;;;;;14.98;7.38;;;;;;;;;;6220913;28;20104;-72
2022/03/23 01:43:33;;;;;;;13.60;7.25;;;;;;;;;;6221121;28;20096;-72
2022/03/23 01:46:38;;;;;;;18.25;7.53;;;;;;;;;;6220122;28;20397;-72
2022/03/23 01:49:45;;;;;;;13.68;7.35;;;;;;;;;;6220388;28;20054;-71
2022/03/23 01:52:49;;;;;;;16.70;7.18;;;;;;;;;;6220197;28;20048;-72
2022/03/23 01:55:52;;;;;;;13.90;7.20;;;;;;;;;;6219597;28;20049;-72
2022/03/23 01:58:55;;;;;;;14.20;7.18;;;;;;;;;;6220524;28;20077;-72
2022/03/23 02:01:58;;;;;;;16.08;6.97;;;;;;;;;;6202859;28;20042;-73
2022/03/23 02:05:07;;;;;;;14.45;7.45;;;;;;;;;;6202906;28;20050;-72
2022/03/23 02:08:13;;;;;;;16.35;7.82;;;;;;;;;;6203107;28;20172;-73
2022/03/23 02:11:18;;;;;;;17.33;7.22;;;;;;;;;;6219549;28;20053;-73
2022/03/23 02:14:21;;;;;;;13.48;7.00;;;;;;;;;;6202957;28;20068;-73
2022/03/23 02:17:25;;;;;;;14.63;7.55;;;;;;;;;;6202640;28;20143;-73
2022/03/23 02:20:28;;;;;;;14.98;7.72;;;;;;;;;;6201800;28;20050;-72
2022/03/23 02:23:32;;;;;;;16.77;8.35;;;;;;;;;;6202516;28;20042;-73
2022/03/23 02:26:37;;;;;;;15.25;7.78;;;;;;;;;;6202225;28;20042;-73
2022/03/23 02:29:40;;;;;;;16.20;7.47;;;;;;;;;;6220270;28;20049;-72
2022/03/23 02:32:43;;;;;;;18.27;7.88;;;;;;;;;;6219334;28;20049;-73
2022/03/23 02:35:48;;;;;;;18.30;7.25;;;;;;;;;;6220056;28;20419;-73
2022/03/23 02:38:52;;;;;;;22.05;8.77;;;;;;;;;;6219783;28;20042;-72
2022/03/23 02:41:58;;;;;;;13.25;7.20;;;;;;;;;;6201292;28;20062;-72
2022/03/23 02:45:01;;;;;;;16.80;7.20;;;;;;;;;;6219779;28;20424;-73
2022/03/23 02:48:06;;;;;;;14.57;7.75;;;;;;;;;;6201782;28;20041;-73
2022/03/23 02:51:08;;;;;;;19.67;8.82;;;;;;;;;;6219677;28;20046;-73
2022/03/23 03:04:50;;;;;;;16.85;8.45;;;;;;;;;;6168103;28;20043;-72
2022/03/23 03:11:14;;;;;;;14.38;7.30;;;;;;;;;;6218979;28;20054;-73
2022/03/23 03:14:17;;;;;;;17.25;7.40;;;;;;;;;;6218760;28;20065;-71
2022/03/23 03:17:23;;;;;;;15.57;8.30;;;;;;;;;;6219197;28;20045;-72
2022/03/23 03:20:26;;;;;;;15.77;8.00;;;;;;;;;;6218119;28;20053;-70
2022/03/23 03:23:30;;;;;;;15.48;7.32;;;;;;;;;;6217692;28;20050;-71
2022/03/23 03:26:34;;;;;;;17.55;7.38;;;;;;;;;;6201405;28;20046;-72
2022/03/23 03:29:37;;;;;;;16.60;7.88;;;;;;;;;;6200589;28;20179;-73
2022/03/23 03:32:40;;;;;;;17.48;7.60;;;;;;;;;;6218337;28;20053;-72
2022/03/23 03:35:47;;;;;;;16.92;8.05;;;;;;;;;;6200936;28;20049;-71
2022/03/23 03:38:50;;;;;;;14.02;8.13;;;;;;;;;;6218570;28;20412;-71
2022/03/23 03:41:55;;;;;;;16.42;8.07;;;;;;;;;;6217633;28;20112;-72
2022/03/23 03:45:00;;;;;;;19.10;8.50;;;;;;;;;;6218576;28;20489;-72
2022/03/23 03:48:03;;;;;;;13.73;7.55;;;;;;;;;;6218349;28;20132;-72
2022/03/23 03:51:06;;;;;;;18.25;8.15;;;;;;;;;;6217565;28;20401;-71
2022/03/23 03:54:09;;;;;;;23.13;8.82;;;;;;;;;;6218579;28;20052;-72
2022/03/23 03:57:14;;;;;;;16.90;8.73;;;;;;;;;;6218336;28;20053;-73
2022/03/23 04:00:17;;;;;;;17.98;8.57;;;;;;;;;;6200336;28;20050;-72
2022/03/23 04:03:20;;;;;;;18.10;8.07;;;;;;;;;;6217832;28;20045;-73
2022/03/23 04:06:25;;;;;;;16.77;8.30;;;;;;;;;;6200345;28;20046;-73
2022/03/23 04:09:30;;;;;;;20.40;8.65;;;;;;;;;;6218153;28;20042;-72
2022/03/23 04:12:34;;;;;;;17.23;7.90;;;;;;;;;;6199470;28;20132;-71
2022/03/23 04:15:40;;;;;;;20.23;8.80;;;;;;;;;;6201291;28;20053;-71
2022/03/23 04:18:43;;;;;;;14.63;7.97;;;;;;;;;;6200149;28;20061;-72
2022/03/23 04:21:46;;;;;;;18.25;8.90;;;;;;;;;;6218094;28;20049;-71
2022/03/23 04:24:49;;;;;;;13.80;7.13;;;;;;;;;;6217868;28;20052;-73
2022/03/23 04:27:54;;;;;;;18.10;7.88;;;;;;;;;;6217824;28;20048;-73
2022/03/23 04:30:57;;;;;;;18.00;8.02;;;;;;;;;;6218776;28;20049;-72
2022/03/23 04:34:02;;;;;;;15.20;8.07;;;;;;;;;;6217035;28;20389;-73
2022/03/23 04:37:05;;;;;;;20.08;8.45;;;;;;;;;;6217926;28;20056;-72
2022/03/23 04:40:09;;;;;;;17.33;8.27;;;;;;;;;;6200036;28;20046;-73
2022/03/23 04:43:14;;;;;;;20.65;8.50;;;;;;;;;;6216763;28;20117;-73
2022/03/23 04:46:19;;;;;;;20.88;8.55;;;;;;;;;;6205303;28;20050;-72
2022/03/23 04:49:22;;;;;;;20.88;9.05;;;;;;;;;;6204449;28;20100;-72
2022/03/23 04:52:25;;;;;;;17.30;7.90;;;;;;;;;;6220513;28;20054;-72
2022/03/23 04:55:31;;;;;;;18.50;8.37;;;;;;;;;;6220096;28;20057;-72
2022/03/23 04:58:35;;;;;;;17.88;8.80;;;;;;;;;;6222419;28;20050;-71
2022/03/23 05:01:38;;;;;;;18.63;8.43;;;;;;;;;;6222015;28;20046;-71
2022/03/23 05:04:43;;;;;;;20.05;8.40;;;;;;;;;;6219930;28;20050;-73
2022/03/23 05:07:46;;;;;;;18.55;8.80;;;;;;;;;;6222412;28;20485;-72
2022/03/23 05:10:51;;;;;;;21.50;9.07;;;;;;;;;;6204034;28;20432;-72
2022/03/23 05:13:55;;;;;;;21.73;8.90;;;;;;;;;;6221522;28;20056;-72
2022/03/23 05:16:58;;;;;;;17.23;7.85;;;;;;;;;;6221344;28;20509;-72
2022/03/23 05:20:04;;;;;;;17.10;8.43;;;;;;;;;;6222031;28;20046;-72
2022/03/23 05:23:08;;;;;;;19.23;8.52;;;;;;;;;;6220430;28;20042;-72
2022/03/23 05:26:10;;;;;;;18.92;8.90;;;;;;;;;;6220376;28;20069;-72
2022/03/23 05:29:15;;;;;;;21.35;8.43;;;;;;;;;;6203977;28;20583;-72
2022/03/23 05:32:18;;;;;;;14.82;7.45;;;;;;;;;;6203594;28;20046;-74
2022/03/23 05:35:24;;;;;;;20.15;9.00;;;;;;;;;;6221711;28;20050;-72
2022/03/23 05:38:28;;;;;;;17.30;8.32;;;;;;;;;;6203432;28;20049;-73
2022/03/23 05:41:31;;;;;;;15.27;8.27;;;;;;;;;;6203083;28;20054;-73
2022/03/23 05:44:36;;;;;;;18.63;8.50;;;;;;;;;;6202716;28;20058;-73
2022/03/23 05:47:40;;;;;;;21.30;9.18;;;;;;;;;;6219227;28;20050;-75
2022/03/23 05:50:43;;;;;;;27.42;9.80;;;;;;;;;;6203796;28;20064;-73
2022/03/23 05:53:46;;;;;;;20.30;9.00;;;;;;;;;;6220904;28;20374;-75
2022/03/23 05:56:49;;;;;;;18.65;9.02;;;;;;;;;;6219238;28;20053;-73
2022/03/23 05:59:53;;;;;;;19.95;9.68;;;;;;;;;;6220533;28;20046;-72
2022/03/23 06:02:56;;;;;;;18.77;9.18;;;;;;;;;;6220493;28;20519;-73
2022/03/23 06:05:59;;;;;;;24.52;10.23;;;;;;;;;;6201525;28;20104;-72
2022/03/23 06:09:02;;;;;;;38.78;17.52;;;;;;;;;;6219666;28;20054;-72
2022/03/23 06:12:05;;;;;;;23.10;9.60;;;;;;;;;;6220265;28;20056;-73
2022/03/23 06:15:11;;;;;;;22.30;9.50;;;;;;;;;;6219653;28;20049;-73
2022/03/23 06:18:14;;;;;;;22.63;9.65;;;;;;;;;;6219431;28;20053;-72
2022/03/23 06:21:17;;;;;;;19.75;9.07;;;;;;;;;;6220791;28;20050;-73
2022/03/23 06:24:20;;;;;;;19.95;9.23;;;;;;;;;;6219821;28;20512;-72
2022/03/23 06:27:24;;;;;;;20.77;9.95;;;;;;;;;;6219385;28;20420;-72
2022/03/23 06:30:30;;;;;;;22.63;9.75;;;;;;;;;;6219136;28;20049;-72
2022/03/23 06:33:36;;;;;;;23.67;9.63;;;;;;;;;;6219767;28;20511;-73
2022/03/23 06:36:39;;;;;;;25.17;10.30;;;;;;;;;;6219638;28;20053;-73
2022/03/23 06:39:42;;;;;;;18.75;9.57;;;;;;;;;;6218427;28;20148;-73
2022/03/23 06:42:45;;;;;;;22.63;9.57;;;;;;;;;;6220124;28;20480;-74
2022/03/23 06:45:52;;;;;;;22.80;9.63;;;;;;;;;;6201818;28;20046;-73
2022/03/23 06:48:57;;;;;;;27.63;8.98;;;;;;;;;;6201238;28;20046;-73
2022/03/23 06:52:00;;;;;;;24.00;10.20;;;;;;;;;;6218918;28;20050;-73
2022/03/23 06:55:04;;;;;;;24.92;10.48;;;;;;;;;;6219472;28;20046;-73
2022/03/23 06:58:07;;;;;;;19.40;9.50;;;;;;;;;;6218870;28;20218;-73
2022/03/23 07:01:11;;;;;;;21.88;9.80;;;;;;;;;;6200427;28;20046;-72
2022/03/23 07:04:14;;;;;;;19.55;9.63;;;;;;;;;;6219180;28;20389;-72
2022/03/23 07:07:17;;;;;;;21.17;10.30;;;;;;;;;;6218035;28;20092;-73
2022/03/23 07:10:19;;;;;;;21.73;10.73;;;;;;;;;;6218358;28;20053;-73
2022/03/23 07:13:22;;;;;;;19.38;10.23;;;;;;;;;;6219089;28;20097;-73
2022/03/23 07:16:28;;;;;;;24.25;10.77;;;;;;;;;;6218573;28;20075;-72
2022/03/23 07:19:31;;;;;;;;;;;;;;;;;;6219366;28;20056;-73
2022/03/23 07:22:34;;;;;;;74.05;37.28;;;;;;;;;;6218221;28;20007;-73
2022/03/23 07:25:37;;;;;;;22.98;11.13;;;;;;;;;;6217422;28;20116;-74
2022/03/23 07:28:40;;;;;;;20.27;10.18;;;;;;;;;;6216824;28;20576;-73
2022/03/23 07:31:46;;;;;;;20.27;9.60;;;;;;;;;;6217250;28;20448;-73
2022/03/23 07:34:50;;;;;;;21.00;9.55;;;;;;;;;;6185088;28;20136;-74
2022/03/23 07:37:55;;;;;;;20.73;10.00;;;;;;;;;;6218254;28;20132;-72
2022/03/23 07:40:58;;;;;;;24.58;10.27;;;;;;;;;;6217708;28;20089;-74
2022/03/23 07:44:03;;;;;;;25.80;10.00;;;;;;;;;;6217926;28;20045;-72
2022/03/23 07:47:10;;;;;;;20.67;10.85;;;;;;;;;;6217971;28;20500;-74
2022/03/23 07:50:13;;;;;;;19.10;9.48;;;;;;;;;;6218126;28;20054;-73
2022/03/23 07:53:16;;;;;;;20.40;9.48;;;;;;;;;;6217046;28;20172;-74
2022/03/23 07:56:19;;;;;;;19.55;9.98;;;;;;;;;;6218785;28;20060;-74
2022/03/23 07:59:22;;;;;;;20.73;9.77;;;;;;;;;;6217565;28;20069;-73
2022/03/23 08:02:29;;;;;;;22.08;9.60;;;;;;;;;;6217151;28;20064;-73
2022/03/23 08:05:32;;;;;;;20.70;10.38;;;;;;;;;;6217974;28;20046;-73
2022/03/23 08:08:38;;;;;;;22.20;9.93;;;;;;;;;;6218234;28;20049;-72
2022/03/23 08:11:41;;;;;;;22.75;10.95;;;;;;;;;;6200279;28;20072;-73
2022/03/23 08:14:44;;;;;;;18.30;10.27;;;;;;;;;;6216819;28;20069;-73
2022/03/23 08:17:54;;;;;;;21.40;9.98;;;;;;;;;;6217400;28;20172;-74
2022/03/23 08:20:57;;;;;;;22.45;10.35;;;;;;;;;;6217089;28;20057;-74
2022/03/23 08:24:00;;;;;;;20.15;10.27;;;;;;;;;;6216887;28;20132;-73
2022/03/23 08:27:03;;;;;;;20.95;10.63;;;;;;;;;;6217060;28;20050;-73
2022/03/23 08:30:07;;;;;;;23.80;10.43;;;;;;;;;;6217290;28;20053;-72
2022/03/23 08:33:12;;;;;;;19.48;8.80;;;;;;;;;;6217514;28;20050;-74
2022/03/23 08:36:15;;;;;;;18.70;10.67;;;;;;;;;;6199207;28;20133;-73
2022/03/23 08:39:18;;;;;;;18.17;10.05;;;;;;;;;;6215917;28;20057;-72
2022/03/23 08:42:23;;;;;;;17.75;9.73;;;;;;;;;;6215830;28;20064;-72
2022/03/23 08:45:27;;;;;;;21.73;10.73;;;;;;;;;;6198714;28;20058;-74
2022/03/23 08:48:31;;;;;;;23.00;10.55;;;;;;;;;;6217289;28;20046;-75
2022/03/23 08:51:35;;;;;;;21.83;10.00;;;;;;;;;;6217166;28;20507;-73
2022/03/23 08:54:38;;;;;;;20.45;10.40;;;;;;;;;;6216318;28;20045;-73
2022/03/23 08:57:44;;;;;;;21.92;10.38;;;;;;;;;;6215122;28;20473;-74
2022/03/23 09:00:47;;;;;;;20.83;10.25;;;;;;;;;;6215864;28;20050;-73
2022/03/23 09:03:53;;;;;;;;;;;;;;;;;;6216618;28;20496;-75
2022/03/23 09:06:58;;;;;;;17.88;8.32;;;;;;;;;;6215774;28;20380;-74
2022/03/23 09:10:01;;;;;;;22.38;9.65;;;;;;;;;;6199809;28;20050;-73
2022/03/23 09:13:03;;;;;;;19.70;9.40;;;;;;;;;;6216497;28;20420;-73
2022/03/23 09:16:09;;;;;;;17.55;9.35;;;;;;;;;;6216888;28;20061;-74
2022/03/23 09:19:14;;;;;;;20.13;9.50;;;;;;;;;;6214878;28;20068;-74
2022/03/23 09:22:20;;;;;;;17.60;9.57;;;;;;;;;;6216652;28;20044;-74
2022/03/23 09:25:25;;;;;;;21.35;10.18;;;;;;;;;;6199111;28;20489;-75
2022/03/23 09:28:31;;;;;;;17.90;9.77;;;;;;;;;;6215790;28;20042;-75
2022/03/23 09:31:34;;;;;;;22.00;9.68;;;;;;;;;;6219929;28;20053;-74
2022/03/23 09:34:38;;;;;;;17.92;9.52;;;;;;;;;;6220122;28;20054;-74
2022/03/23 09:37:52;;;;;;;17.90;9.48;;;;;;;;;;6221223;28;20115;-72
2022/03/23 09:40:57;;;;;;;18.40;9.63;;;;;;;;;;6202232;28;20617;-75
2022/03/23 09:44:00;;;;;;;18.33;8.85;;;;;;;;;;6220665;28;20052;-72
2022/03/23 09:47:06;;;;;;;17.48;8.73;;;;;;;;;;6220888;28;20054;-74
2022/03/23 09:50:09;;;;;;;15.27;7.55;;;;;;;;;;6219652;28;20041;-74
2022/03/23 09:53:14;;;;;;;15.13;7.10;;;;;;;;;;6220938;28;20050;-73
2022/03/23 09:56:20;;;;;;;12.75;6.88;;;;;;;;;;6220649;28;20577;-73
2022/03/23 09:59:26;;;;;;;15.77;7.35;;;;;;;;;;6220315;28;20464;-73
2022/03/23 10:02:59;;;;;;;15.77;6.40;;;;;;;;;;6220100;28;20046;-74
2022/03/23 10:06:12;;;;;;;15.18;6.40;;;;;;;;;;6169173;28;20425;-74
2022/03/23 10:09:30;;;;;;;11.27;6.20;;;;;;;;;;6219572;28;20046;-74
2022/03/23 10:13:17;;;;;;;11.20;5.32;;;;;;;;;;6220309;28;20049;-74
2022/03/23 10:16:46;;;;;;;17.40;7.00;;;;;;;;;;6218128;28;20817;-74
2022/03/23 10:19:49;;;;;;;13.88;7.25;;;;;;;;;;6220147;28;20104;-73
2022/03/23 10:22:53;;;;;;;14.52;6.18;;;;;;;;;;6220248;28;20046;-74
2022/03/23 10:26:12;;;;;;;12.20;6.78;;;;;;;;;;6220616;28;20108;-74
2022/03/23 10:29:19;;;;;;;15.32;6.80;;;;;;;;;;6219179;28;20050;-74
2022/03/23 10:32:24;;;;;;;12.57;7.43;;;;;;;;;;6220205;28;20049;-74
2022/03/23 10:35:36;;;;;;;19.13;9.13;;;;;;;;;;6219390;28;20120;-75
2022/03/23 10:38:39;;;;;;;14.85;7.60;;;;;;;;;;6217600;28;20046;-73
2022/03/23 10:41:42;;;;;;;15.73;7.30;;;;;;;;;;6216147;28;20414;-75
2022/03/23 10:44:48;;;;;;;16.42;7.60;;;;;;;;;;6216980;28;20058;-75
2022/03/23 10:47:52;;;;;;;14.73;6.63;;;;;;;;;;6216951;28;20559;-74
2022/03/23 10:50:56;;;;;;;12.52;7.13;;;;;;;;;;6216731;28;20042;-75
2022/03/23 10:54:14;;;;;;;18.95;8.25;;;;;;;;;;6219508;28;20053;-75
2022/03/23 10:57:17;;;;;;;15.32;7.88;;;;;;;;;;6219483;28;20050;-74
2022/03/23 11:00:27;;;;;;;13.95;7.85;;;;;;;;;;6201878;28;20048;-73
2022/03/23 11:03:39;;;;;;;12.50;7.00;;;;;;;;;;6218305;28;20099;-73
2022/03/23 11:06:43;;;;;;;13.45;7.47;;;;;;;;;;6202196;28;20121;-74
2022/03/23 11:16:30;;;;;;;14.32;7.53;;;;;;;;;;6217949;28;20053;-73
2022/03/23 11:19:37;;;;;;;13.30;7.25;;;;;;;;;;6218927;28;20053;-74
2022/03/23 11:22:40;;;;;;;15.45;7.60;;;;;;;;;;6218720;28;20042;-73
2022/03/23 11:25:44;;;;;;;17.75;8.25;;;;;;;;;;6217609;28;20045;-73
2022/03/23 11:28:52;;;;;;;14.02;7.63;;;;;;;;;;6218570;28;20477;-74
2022/03/23 11:31:55;;;;;;;;;;;;;;;;;;6219776;28;20046;-73
2022/03/23 11:35:01;;;;;;;15.57;7.47;;;;;;;;;;6218659;28;19983;-73
2022/03/23 11:38:05;;;;;;;18.30;7.20;;;;;;;;;;6200245;28;20106;-74
2022/03/23 11:41:09;;;;;;;9.63;6.07;;;;;;;;;;6218088;28;20054;-74
2022/03/23 11:44:16;;;;;;;10.25;6.80;;;;;;;;;;6218082;28;20385;-74
2022/03/23 11:47:25;;;;;;;49.97;8.88;;;;;;;;;;6217453;28;20053;-76
2022/03/23 11:50:40;;;;;;;10.00;5.40;;;;;;;;;;6218011;28;20054;-70
2022/03/23 11:53:51;;;;;;;36.40;7.60;;;;;;;;;;6217188;28;20416;-71
2022/03/23 11:56:58;;;;;;;16.95;7.95;;;;;;;;;;6217815;28;20046;-72
2022/03/23 12:00:02;;;;;;;18.05;8.15;;;;;;;;;;6216589;28;20128;-71
2022/03/23 12:03:07;;;;;;;13.63;6.72;;;;;;;;;;6218994;28;20042;-71
2022/03/23 12:06:12;;;;;;;13.02;7.18;;;;;;;;;;6217722;28;20050;-71
2022/03/23 12:09:34;;;;;;;14.35;7.32;;;;;;;;;;6217417;28;20412;-82
2022/03/23 12:12:39;;;;;;;15.60;6.85;;;;;;;;;;6217357;28;20847;-85
2022/03/23 12:15:57;;;;;;;13.60;7.00;;;;;;;;;;6214728;28;20038;-81
2022/03/23 12:19:04;;;;;;;10.95;7.03;;;;;;;;;;6215686;28;20505;-80
2022/03/23 12:22:16;;;;;;;12.17;6.83;;;;;;;;;;6198623;28;20046;-80
2022/03/23 12:25:22;;;;;;;13.88;6.32;;;;;;;;;;6198671;28;20472;-81
2022/03/23 12:28:32;;;;;;;11.38;6.00;;;;;;;;;;6200117;28;20187;-79
2022/03/23 12:31:37;;;;;;;10.95;5.93;;;;;;;;;;6216946;28;20042;-81
2022/03/23 12:34:41;;;;;;;13.88;6.50;;;;;;;;;;6216215;28;20408;-78
2022/03/23 12:37:48;;;;;;;15.57;6.55;;;;;;;;;;6217399;28;20519;-80
2022/03/23 12:40:50;;;;;;;12.40;6.40;;;;;;;;;;6216744;28;20049;-79
2022/03/23 12:43:53;;;;;;;14.88;6.40;;;;;;;;;;6216815;28;20077;-79
2022/03/23 12:46:57;;;;;;;12.65;6.22;;;;;;;;;;6217123;28;20045;-77
2022/03/23 13:00:29;;;;;;;14.70;6.10;;;;;;;;;;6215932;28;20050;-77
2022/03/23 13:03:53;;;;;;;9.05;5.97;;;;;;;;;;6199409;28;20050;-76
2022/03/23 13:06:56;;;;;;;12.87;5.93;;;;;;;;;;6221491;28;20196;-80
2022/03/23 13:10:06;;;;;;;11.48;6.28;;;;;;;;;;6221387;28;20290;-78
2022/03/23 13:13:09;;;;;;;12.80;6.03;;;;;;;;;;6220632;28;20434;-79
2022/03/23 13:16:15;;;;;;;10.18;6.28;;;;;;;;;;6221360;28;20038;-76
2022/03/23 13:19:19;;;;;;;18.45;13.18;;;;;;;;;;6221106;28;20041;-77
2022/03/23 13:22:32;;;;;;;13.57;6.45;;;;;;;;;;6203549;28;20057;-77
2022/03/23 13:25:37;;;;;;;15.98;6.00;;;;;;;;;;6221518;28;20144;-77
2022/03/23 13:28:43;;;;;;;14.32;6.32;;;;;;;;;;6221014;28;20064;-77
2022/03/23 13:31:46;;;;;;;10.43;5.78;;;;;;;;;;6202293;28;20042;-78
2022/03/23 13:34:52;;;;;;;14.40;6.33;;;;;;;;;;6218966;28;20057;-78
2022/03/23 13:38:18;;;;;;;10.32;5.80;;;;;;;;;;6221068;28;20050;-77
2022/03/23 13:44:56;;;;;;;8.98;6.88;;;;;;;;;;6218117;28;20128;-79
2022/03/23 13:47:59;;;;;;;10.27;6.13;;;;;;;;;;6216019;28;20084;-78
2022/03/23 13:51:03;;;;;;;10.02;6.40;;;;;;;;;;6216719;28;20038;-79
2022/03/23 13:54:07;;;;;;;12.35;6.35;;;;;;;;;;6217698;28;20687;-82
2022/03/23 13:57:11;;;;;;;20.23;7.30;;;;;;;;;;6219237;28;20784;-79
2022/03/23 14:00:22;;;;;;;12.07;6.32;;;;;;;;;;6220261;28;20397;-79
2022/03/23 14:03:30;;;;;;;13.70;6.80;;;;;;;;;;6219956;28;20050;-79
2022/03/23 14:06:41;;;;;;;13.52;7.00;;;;;;;;;;6220653;28;20100;-78
2022/03/23 14:09:44;;;;;;;16.63;6.00;;;;;;;;;;6219680;28;20526;-80
2022/03/23 14:12:50;;;;;;;9.50;6.25;;;;;;;;;;6202613;28;20060;-78
2022/03/23 14:16:13;;;;;;;11.35;5.80;;;;;;;;;;6218710;28;20148;-80
2022/03/23 14:19:17;;;;;;;11.80;6.38;;;;;;;;;;6218568;28;20054;-80
2022/03/23 14:22:22;;;;;;;11.85;5.85;;;;;;;;;;6219347;28;20420;-78
2022/03/23 14:25:25;;;;;;;11.15;5.97;;;;;;;;;;6219757;28;20442;-79
2022/03/23 14:28:30;;;;;;;12.57;6.00;;;;;;;;;;6220014;28;20041;-76
2022/03/23 14:31:34;;;;;;;9.80;5.82;;;;;;;;;;6218993;28;20455;-79
2022/03/23 14:34:37;;;;;;;14.73;6.18;;;;;;;;;;6202262;28;20192;-82
2022/03/23 14:37:41;;;;;;;10.38;6.25;;;;;;;;;;6219410;28;20046;-82
2022/03/23 14:40:48;;;;;;;8.25;5.32;;;;;;;;;;6219875;28;20083;-82
2022/03/23 14:43:52;;;;;;;13.00;5.63;;;;;;;;;;6219233;28;20627;-80
2022/03/23 14:46:55;;;;;;;;;;;;;;;;;;6199824;28;20048;-80
2022/03/23 14:50:16;;;;;;;11.57;5.82;;;;;;;;;;6218750;28;19921;-86
2022/03/23 14:53:20;;;;;;;9.93;6.55;;;;;;;;;;6218494;28;20046;-79
2022/03/23 14:56:23;;;;;;;24.17;6.60;;;;;;;;;;6219528;28;20121;-79
2022/03/23 14:59:29;;;;;;;13.60;6.00;;;;;;;;;;6219295;28;20050;-79
2022/03/23 15:02:33;;;;;;;17.83;6.13;;;;;;;;;;6218897;28;20124;-79
2022/03/23 15:15:43;;;;;;;12.40;5.70;;;;;;;;;;6218895;28;20046;-78
2022/03/23 15:18:47;;;;;;;14.45;6.53;;;;;;;;;;6217834;28;20052;-79
2022/03/23 15:21:50;;;;;;;12.10;5.97;;;;;;;;;;6217554;28;20052;-79
2022/03/23 15:24:53;;;;;;;10.60;5.75;;;;;;;;;;6217981;28;20046;-79
2022/03/23 15:27:59;;;;;;;8.68;6.00;;;;;;;;;;6216635;28;20484;-79
2022/03/23 15:31:03;;;;;;;13.23;5.67;;;;;;;;;;6218293;28;20052;-79
2022/03/23 15:34:06;;;;;;;11.15;5.45;;;;;;;;;;6215840;28;20505;-77
2022/03/23 15:37:20;;;;;;;10.52;5.63;;;;;;;;;;6216575;28;20050;-77
2022/03/23 15:40:24;;;;;;;13.40;5.55;;;;;;;;;;6217176;28;20407;-78
2022/03/23 15:43:27;;;;;;;12.98;5.68;;;;;;;;;;6218043;28;20149;-78
2022/03/23 15:46:33;;;;;;;12.05;5.25;;;;;;;;;;6217951;28;20046;-80
2022/03/23 15:49:36;;;;;;;10.65;4.85;;;;;;;;;;6217170;28;20053;-79
2022/03/23 15:52:39;;;;;;;11.90;5.18;;;;;;;;;;6217966;28;20061;-78
2022/03/23 15:55:42;;;;;;;11.75;5.20;;;;;;;;;;6217718;28;20053;-78
2022/03/23 15:58:45;;;;;;;19.42;5.70;;;;;;;;;;6216222;28;20037;-78
2022/03/23 16:01:49;;;;;;;21.05;6.25;;;;;;;;;;6217364;28;20042;-77
2022/03/23 16:04:53;;;;;;;;;;;;;;;;;;6217689;28;20046;-76
2022/03/23 16:07:55;;;;;;;25.67;6.68;;;;;;;;;;6217720;28;19931;-79
2022/03/23 16:10:59;;;;;;;9.77;5.18;;;;;;;;;;6214464;28;20116;-79
2022/03/23 16:14:02;;;;;;;22.77;6.35;;;;;;;;;;6217438;28;20053;-78
2022/03/23 16:17:06;;;;;;;19.50;6.35;;;;;;;;;;6216320;28;20092;-77
2022/03/23 16:20:10;;;;;;;13.35;6.45;;;;;;;;;;6216715;28;20056;-77
2022/03/23 16:23:14;;;;;;;21.45;5.90;;;;;;;;;;6216947;28;20046;-82
2022/03/23 16:26:18;;;;;;;18.35;5.50;;;;;;;;;;6216033;28;20407;-79
2022/03/23 16:29:21;;;;;;;13.03;5.53;;;;;;;;;;6214555;28;20046;-81
2022/03/23 16:32:29;;;;;;;13.10;5.43;;;;;;;;;;6214962;28;20057;-83
2022/03/23 16:35:34;;;;;;;19.92;5.65;;;;;;;;;;6215173;28;20053;-81
2022/03/23 16:38:37;;;;;;;16.67;6.15;;;;;;;;;;6216432;28;20451;-81
2022/03/23 16:41:40;;;;;;;17.10;5.80;;;;;;;;;;6204043;28;20057;-82
2022/03/23 16:44:49;;;;;;;18.25;6.55;;;;;;;;;;6221051;28;20418;-82
2022/03/23 16:47:54;;;;;;;22.70;5.85;;;;;;;;;;6220606;28;20050;-81
2022/03/23 16:50:57;;;;;;;16.35;6.20;;;;;;;;;;6221979;28;20041;-82
2022/03/23 16:54:00;;;;;;;25.65;6.55;;;;;;;;;;6201231;28;20045;-80
2022/03/23 16:57:03;;;;;;;12.52;5.63;;;;;;;;;;6219082;28;20074;-81
2022/03/23 17:00:08;;;;;;;16.42;5.80;;;;;;;;;;6219387;28;20053;-81
2022/03/23 17:13:15;;;;;;;18.52;5.85;;;;;;;;;;6219326;28;20481;-81
2022/03/23 17:16:18;;;;;;;14.13;5.95;;;;;;;;;;6220539;28;20132;-81
2022/03/23 17:19:23;;;;;;;17.35;6.32;;;;;;;;;;6222059;28;20398;-81
2022/03/23 17:22:27;;;;;;;20.65;6.00;;;;;;;;;;6220338;28;20535;-81
2022/03/23 17:25:32;;;;;;;13.25;5.75;;;;;;;;;;6221055;28;20054;-80
2022/03/23 17:28:35;;;;;;;17.67;6.60;;;;;;;;;;6220318;28;20076;-81
2022/03/23 17:31:38;;;;;;;16.75;6.45;;;;;;;;;;6219798;28;20042;-81
2022/03/23 17:34:45;;;;;;;22.25;6.80;;;;;;;;;;6203975;28;20042;-81
2022/03/23 17:37:48;;;;;;;19.02;7.25;;;;;;;;;;6220641;28;20473;-81
2022/03/23 17:40:51;;;;;;;19.65;6.47;;;;;;;;;;6221644;28;20058;-80
2022/03/23 17:43:55;;;;;;;18.67;6.13;;;;;;;;;;6220521;28;20053;-78
2022/03/23 17:46:58;;;;;;;17.90;7.30;;;;;;;;;;6220768;28;20403;-79
2022/03/23 17:50:03;;;;;;;17.52;6.15;;;;;;;;;;6220614;28;20104;-78
2022/03/23 17:53:06;;;;;;;18.88;6.70;;;;;;;;;;6220086;28;20056;-79
2022/03/23 17:56:09;;;;;;;18.77;5.68;;;;;;;;;;6219460;28;20045;-77
2022/03/23 17:59:12;;;;;;;17.70;6.63;;;;;;;;;;6220085;28;20046;-76
2022/03/23 18:02:15;;;;;;;30.08;9.13;;;;;;;;;;6220379;28;20066;-77
2022/03/23 18:05:19;;;;;;;27.13;10.10;;;;;;;;;;6219990;28;20064;-79
2022/03/23 18:08:23;;;;;;;20.17;6.60;;;;;;;;;;6220143;28;20046;-78
2022/03/23 18:11:26;;;;;;;18.77;6.55;;;;;;;;;;6220086;28;20480;-76
2022/03/23 18:14:29;;;;;;;19.75;5.93;;;;;;;;;;6219707;28;20096;-75
2022/03/23 18:17:32;;;;;;;21.05;6.00;;;;;;;;;;6220167;28;20455;-83
2022/03/23 18:20:37;;;;;;;25.00;7.13;;;;;;;;;;6219719;28;20516;-78
2022/03/23 18:23:40;;;;;;;21.45;8.02;;;;;;;;;;6219925;28;20428;-76
2022/03/23 18:26:43;;;;;;;20.92;7.80;;;;;;;;;;6202100;28;20046;-76
2022/03/23 18:29:46;;;;;;;17.33;7.13;;;;;;;;;;6201412;28;20045;-75
2022/03/23 18:32:49;;;;;;;21.02;7.55;;;;;;;;;;6219761;28;20038;-79
2022/03/23 18:35:54;;;;;;;24.63;7.10;;;;;;;;;;6219177;28;20048;-79
2022/03/23 18:38:57;;;;;;;26.95;6.90;;;;;;;;;;6219450;28;20049;-79
2022/03/23 18:42:00;;;;;;;19.92;7.05;;;;;;;;;;6218992;28;20764;-83
2022/03/23 18:45:04;;;;;;;18.08;6.97;;;;;;;;;;6219242;28;20050;-77
2022/03/23 18:48:07;;;;;;;15.43;6.22;;;;;;;;;;6219409;28;20100;-80
2022/03/23 18:51:11;;;;;;;19.90;6.00;;;;;;;;;;6219403;28;20037;-82
2022/03/23 18:54:14;;;;;;;18.00;6.45;;;;;;;;;;6219569;28;20374;-79
2022/03/23 18:57:18;;;;;;;11.48;6.05;;;;;;;;;;6219020;28;20041;-76
2022/03/23 19:00:22;;;;;;;15.93;6.45;;;;;;;;;;6218834;28;20056;-80
2022/03/23 19:03:26;;;;;;;14.18;6.72;;;;;;;;;;6219335;28;20085;-82
2022/03/23 19:06:30;;;;;;;15.45;6.13;;;;;;;;;;6218820;28;20046;-81
2022/03/23 19:09:33;;;;;;;16.83;7.30;;;;;;;;;;6218791;28;20330;-79